This is the latest recevied weather packets stored in our database for station/object KP4FJC. If no packets are shown the sender has not sent any weather packets the latest 10 day(s).
| Time | Temp. | Humidity | Pressure | Rain* | Wind** | Luminosity | Snow |
|---|---|---|---|---|---|---|---|
| 1777220733 | 31.67° C | 65% | 1014.7 hPa | 0 mm | - | 241 W/m² | - |
| 1777220430 | 31.11° C | 66% | 1014.4 hPa | 0 mm | - | 289 W/m² | - |
| 1777220129 | 32.22° C | 63% | 1014.7 hPa | 0 mm | - | 263 W/m² | - |
| 1777219826 | 33.33° C | 55% | 1014.6 hPa | 0 mm | - | 586 W/m² | - |
| 1777219524 | 32.22° C | 59% | 1014.7 hPa | 0 mm | - | 669 W/m² | - |
| 1777219220 | 33.33° C | 57% | 1014.7 hPa | 0 mm | - | 921 W/m² | - |
| 1777218915 | 34.44° C | 56% | 1014.7 hPa | 0 mm | - | 790 W/m² | - |
| 1777218612 | 32.78° C | 56% | 1014.8 hPa | 0 mm | - | 842 W/m² | - |
| 1777218306 | 32.78° C | 57% | 1014.8 hPa | 0 mm | - | 956 W/m² | - |
| 1777218004 | 32.78° C | 57% | 1015.1 hPa | 0 mm | - | 1030 W/m² | - |
| 1777217699 | 31.67° C | 59% | 1014.9 hPa | 0 mm | - | 1074 W/m² | - |
| 1777217395 | 31.67° C | 61% | 1014.8 hPa | 0 mm | - | 300 W/m² | - |
| 1777217092 | 32.22° C | 59% | 1015.2 hPa | 0 mm | - | 1088 W/m² | - |
| 1777216788 | 31.11° C | 63% | 1014.9 hPa | 0 mm | - | 253 W/m² | - |
| 1777216485 | 31.11° C | 63% | 1015.2 hPa | 0 mm | - | 199 W/m² | - |
| 1777216179 | 31.11° C | 62% | 1014.9 hPa | 0 mm | - | 223 W/m² | - |
| 1777215878 | 31.67° C | 60% | 1015.2 hPa | 0 mm | - | 283 W/m² | - |
| 1777215574 | 32.22° C | 58% | 1015.1 hPa | 0 mm | - | 949 W/m² | - |
| 1777215271 | 31.11° C | 60% | 1015.4 hPa | 0 mm | - | 993 W/m² | - |
| 1777214967 | 32.22° C | 58% | 1015.2 hPa | 0 mm | - | 232 W/m² | - |
| 1777214661 | 31.67° C | 59% | 1015.3 hPa | 0 mm | - | 854 W/m² | - |
| 1777214355 | 32.22° C | 59% | 1015.3 hPa | 0 mm | - | 860 W/m² | - |
| 1777214054 | 31.67° C | 60% | 1015.4 hPa | 0 mm | - | 849 W/m² | - |
* Rain latest hour (hover to see other rain measurements)
** Current wind speed in m/s (hover to see current wind gust speed)